This is the latest recevied weather packets stored in our database for station/object XE2G-31. If no packets are shown the sender has not sent any weather packets the latest 10 day(s).
| Time | Temp. | Humidity | Pressure | Rain* | Wind** | Luminosity | Snow |
|---|---|---|---|---|---|---|---|
| 1777833468 | 22.22° C | 55% | 876 hPa | - | - | - | - |
| 1777832521 | 23.33° C | 52% | 876 hPa | - | - | - | - |
| 1777831575 | 21.67° C | 58% | 876 hPa | - | - | - | - |
| 1777830628 | 21.67° C | 57% | 876 hPa | - | - | - | - |
| 1777829681 | 21.11° C | 55% | 876 hPa | - | - | - | - |
| 1777828734 | 22.22° C | 52% | 876 hPa | - | - | - | - |
| 1777827787 | 21.67° C | 57% | 876 hPa | - | - | - | - |
| 1777826841 | 21.67° C | 58% | 877 hPa | - | - | - | - |
| 1777825894 | 21.11° C | 60% | 876 hPa | - | - | - | - |
| 1777824947 | 19.44° C | 59% | 876 hPa | - | - | - | - |
| 1777824000 | 18.89° C | 60% | 876 hPa | - | - | - | - |
| 1777823053 | 18.33° C | 62% | 876 hPa | - | - | - | - |
| 1777822106 | 17.78° C | 64% | 876 hPa | - | - | - | - |
| 1777821160 | 17.22° C | 67% | 876 hPa | - | - | - | - |
| 1777820213 | 17.22° C | 69% | 876 hPa | - | - | - | - |
| 1777819267 | 16.67° C | 69% | 876 hPa | - | - | - | - |
| 1777818319 | 16.67° C | 69% | 876 hPa | - | - | - | - |
| 1777817372 | 16.67° C | 68% | 876 hPa | - | - | - | - |
| 1777816425 | 15.56° C | 75% | 876 hPa | - | - | - | - |
| 1777815479 | 14.44° C | 76% | 876 hPa | - | - | - | - |
| 1777814532 | 14.44° C | 77% | 876 hPa | - | - | - | - |
| 1777813585 | 13.33° C | 79% | 876 hPa | - | - | - | - |
| 1777812639 | 13.33° C | 80% | 875 hPa | - | - | - | - |
| 1777811691 | 12.78° C | 81% | 875 hPa | - | - | - | - |
| 1777810745 | 12.78° C | 82% | 875 hPa | - | - | - | - |
* Rain since midnight (hover to see other rain measurements)
** Current wind speed in m/s (hover to see current wind gust speed)